createdAt,value
2024-04-18T00:00:22.968Z,84.40
2024-04-18T00:02:50.680Z,84.70
2024-04-18T00:05:20.806Z,84.10
2024-04-18T00:07:48.223Z,83.80
2024-04-18T00:10:18.735Z,84.00
2024-04-18T00:12:45.741Z,84.10
2024-04-18T00:15:17.683Z,83.60
2024-04-18T00:17:47.468Z,83.80
2024-04-18T00:20:17.005Z,83.80
2024-04-18T00:22:44.308Z,83.50
2024-04-18T00:25:13.895Z,83.90
2024-04-18T00:27:40.858Z,84.10
2024-04-18T00:30:11.047Z,83.80
2024-04-18T00:32:38.013Z,84.60
2024-04-18T00:35:10.770Z,84.20
2024-04-18T00:37:38.201Z,84.40
2024-04-18T00:40:08.647Z,84.80
2024-04-18T00:42:35.660Z,85.30
2024-04-18T00:45:05.259Z,84.70
2024-04-18T00:47:32.902Z,84.30
2024-04-18T00:50:02.659Z,85.00
2024-04-18T00:52:32.757Z,85.40
2024-04-18T00:55:04.385Z,85.00
2024-04-18T00:57:33.475Z,85.40
2024-04-18T01:00:03.644Z,85.20
2024-04-18T01:02:31.356Z,85.50
2024-04-18T01:05:01.815Z,85.80
2024-04-18T01:07:31.437Z,86.40
2024-04-18T01:10:01.043Z,85.90
2024-04-18T01:12:28.011Z,85.80
2024-04-18T01:14:57.916Z,85.00
2024-04-18T01:17:24.998Z,85.70
2024-04-18T01:19:54.600Z,85.50
2024-04-18T01:22:21.990Z,86.30
2024-04-18T01:24:54.289Z,86.20
2024-04-18T01:27:23.907Z,86.50
2024-04-18T01:29:53.443Z,87.70
2024-04-18T01:32:20.408Z,88.10
2024-04-18T01:34:49.967Z,88.70
2024-04-18T01:37:16.926Z,88.10
2024-04-18T01:39:48.146Z,88.10
2024-04-18T01:42:15.159Z,88.50
2024-04-18T01:44:48.625Z,88.20
2024-04-18T01:47:15.607Z,87.50
2024-04-18T01:49:45.120Z,86.70
2024-04-18T01:52:12.113Z,87.70
2024-04-18T01:54:41.727Z,87.10
2024-04-18T01:57:08.767Z,87.40
2024-04-18T01:59:38.294Z,87.80
2024-04-18T02:02:07.875Z,88.00
2024-04-18T02:04:37.457Z,87.60
2024-04-18T02:07:04.665Z,87.10
2024-04-18T02:09:34.276Z,86.30
2024-04-18T02:12:01.253Z,87.00
2024-04-18T02:14:30.850Z,88.10
2024-04-18T02:16:57.827Z,88.50
2024-04-18T02:19:30.207Z,87.70
2024-04-18T02:21:57.233Z,87.60
2024-04-18T02:24:26.770Z,87.70
2024-04-18T02:26:54.552Z,87.40
2024-04-18T02:29:24.095Z,86.30
2024-04-18T02:31:51.028Z,87.30
2024-04-18T02:34:20.554Z,87.10
2024-04-18T02:36:50.099Z,87.60
2024-04-18T02:39:19.695Z,88.00
2024-04-18T02:41:46.674Z,88.40
2024-04-18T02:44:16.215Z,87.90
2024-04-18T02:46:45.837Z,88.60
2024-04-18T02:49:12.751Z,89.00
2024-04-18T02:51:42.415Z,89.40
2024-04-18T02:54:12.044Z,88.50
2024-04-18T02:56:41.642Z,88.30
2024-04-18T02:59:08.611Z,88.30
2024-04-18T03:01:38.148Z,88.60
2024-04-18T03:04:05.310Z,88.60
2024-04-18T03:06:34.981Z,88.50
2024-04-18T03:09:02.009Z,88.90
2024-04-18T03:11:34.536Z,88.50
2024-04-18T03:14:01.733Z,88.20
2024-04-18T03:16:31.313Z,88.20
2024-04-18T03:18:58.274Z,87.60
2024-04-18T03:21:27.863Z,88.30
2024-04-18T03:23:54.883Z,88.00
2024-04-18T03:26:24.710Z,88.50
2024-04-18T03:28:55.271Z,88.30
2024-04-18T03:31:24.777Z,88.20
2024-04-18T03:33:51.796Z,87.80
2024-04-18T03:36:21.449Z,87.90
2024-04-18T03:38:50.986Z,88.00
2024-04-18T03:41:20.496Z,87.60
2024-04-18T03:43:50.029Z,86.80
2024-04-18T03:46:23.779Z,86.70
2024-04-18T03:48:53.462Z,86.90
2024-04-18T03:51:20.462Z,87.70
2024-04-18T03:53:50.040Z,87.30
2024-04-18T03:56:17.011Z,87.40
2024-04-18T03:58:46.741Z,86.30
2024-04-18T04:01:14.310Z,86.70
2024-04-18T04:03:46.580Z,87.90
2024-04-18T04:06:13.679Z,87.90
2024-04-18T04:08:43.214Z,87.50
2024-04-18T04:11:10.329Z,87.90
2024-04-18T04:13:39.936Z,88.40
2024-04-18T04:16:07.152Z,88.50
2024-04-18T04:18:36.955Z,88.60
2024-04-18T04:21:08.848Z,89.20
2024-04-18T04:23:39.024Z,89.00
2024-04-18T04:26:06.003Z,89.60
2024-04-18T04:28:35.565Z,89.50
2024-04-18T04:31:02.752Z,89.30
2024-04-18T04:33:34.587Z,88.40
2024-04-18T04:36:01.562Z,88.80
2024-04-18T04:38:33.878Z,88.60
2024-04-18T04:41:00.843Z,89.30
2024-04-18T04:43:30.448Z,89.30
2024-04-18T04:45:57.455Z,88.40
2024-04-18T04:48:27.313Z,89.60
2024-04-18T04:50:55.225Z,89.70
2024-04-18T04:53:24.863Z,89.50
2024-04-18T04:55:54.443Z,89.30
2024-04-18T04:58:24.033Z,90.10
2024-04-18T05:00:51.702Z,89.40
2024-04-18T05:03:21.431Z,89.70
2024-04-18T05:05:48.402Z,89.90
2024-04-18T05:08:18.630Z,90.20
2024-04-18T05:10:46.426Z,90.70
2024-04-18T05:13:19.663Z,90.80
2024-04-18T05:15:46.656Z,91.60
2024-04-18T05:18:16.893Z,91.50
2024-04-18T05:20:43.980Z,91.00
2024-04-18T05:23:13.557Z,90.40
2024-04-18T05:25:40.538Z,90.60
2024-04-18T05:28:20.975Z,90.90
2024-04-18T05:31:03.373Z,91.30
2024-04-18T05:33:34.298Z,91.30
2024-04-18T05:36:01.876Z,92.00
2024-04-18T05:38:31.557Z,92.40
2024-04-18T05:41:01.259Z,92.70
2024-04-18T05:43:33.205Z,92.50
2024-04-18T05:46:07.716Z,92.00
2024-04-18T05:48:37.290Z,91.70
2024-04-18T05:51:06.938Z,92.10
2024-04-18T05:53:36.500Z,92.70
2024-04-18T05:56:06.148Z,92.70
2024-04-18T05:58:36.340Z,93.10
2024-04-18T06:01:08.568Z,93.40
2024-04-18T06:03:38.147Z,93.90
2024-04-18T06:06:07.898Z,93.00
2024-04-18T06:08:37.476Z,92.50
2024-04-18T06:11:07.267Z,91.50
2024-04-18T06:13:40.043Z,91.20
2024-04-18T06:16:12.341Z,90.10
2024-04-18T06:18:41.905Z,89.80
2024-04-18T06:21:11.729Z,89.20
2024-04-18T06:23:41.267Z,87.60
2024-04-18T06:26:10.801Z,86.70
2024-04-18T06:28:40.341Z,86.70
2024-04-18T06:31:12.737Z,85.20
2024-04-18T06:33:44.746Z,86.40
2024-04-18T06:36:14.546Z,86.20
2024-04-18T06:38:44.119Z,85.90
2024-04-18T06:41:13.829Z,84.00
2024-04-18T06:43:43.405Z,83.20
2024-04-18T06:46:15.571Z,82.10
2024-04-18T06:48:45.136Z,82.60
2024-04-18T06:51:14.693Z,82.10
2024-04-18T06:53:44.189Z,80.30
2024-04-18T06:56:14.379Z,79.60
2024-04-18T06:58:43.927Z,79.20
2024-04-18T07:01:16.475Z,80.30
2024-04-18T07:03:46.505Z,81.30
2024-04-18T07:06:16.223Z,81.00
2024-04-18T07:08:45.752Z,80.50
2024-04-18T07:11:15.323Z,77.90
2024-04-18T07:13:44.865Z,78.50
2024-04-18T07:16:17.001Z,78.60
2024-04-18T07:18:46.602Z,78.70
2024-04-18T07:21:18.827Z,77.20
2024-04-18T07:23:48.340Z,77.60
2024-04-18T07:26:18.641Z,76.50
2024-04-18T07:28:48.672Z,77.50
2024-04-18T07:31:20.826Z,77.40
2024-04-18T07:33:52.068Z,77.40
2024-04-18T07:36:22.809Z,76.20
2024-04-18T07:38:52.979Z,76.80
2024-04-18T07:41:22.491Z,77.90
2024-04-18T07:43:51.993Z,76.10
2024-04-18T07:46:29.492Z,77.20
2024-04-18T07:48:59.060Z,74.50
2024-04-18T07:51:29.162Z,72.40
2024-04-18T07:53:59.102Z,71.70
2024-04-18T07:56:36.122Z,72.30
2024-04-18T07:59:08.026Z,73.10
2024-04-18T08:01:45.327Z,74.10
2024-04-18T08:04:34.776Z,74.70
2024-04-18T08:07:07.913Z,75.90
2024-04-18T08:09:42.434Z,74.10
2024-04-18T08:12:24.170Z,74.90
2024-04-18T08:15:01.285Z,75.50
2024-04-18T08:17:37.493Z,75.30
2024-04-18T08:20:08.254Z,76.30
2024-04-18T08:22:38.101Z,76.40
2024-04-18T08:25:08.851Z,77.60
2024-04-18T08:27:39.171Z,79.40
2024-04-18T08:30:09.806Z,77.70
2024-04-18T08:32:42.148Z,79.80
2024-04-18T08:35:17.682Z,77.90
2024-04-18T08:37:47.401Z,78.50
2024-04-18T08:40:17.421Z,79.50
2024-04-18T08:42:47.558Z,79.30
2024-04-18T08:45:14.943Z,79.20
2024-04-18T08:47:50.097Z,79.40
2024-04-18T08:50:20.863Z,78.10
2024-04-18T08:52:50.807Z,77.50
2024-04-18T08:55:18.367Z,76.30
2024-04-18T08:57:52.089Z,74.80
2024-04-18T09:00:21.959Z,76.80
2024-04-18T09:02:54.587Z,77.60
2024-04-18T09:05:24.396Z,75.70
2024-04-18T09:07:54.198Z,74.60
2024-04-18T09:10:24.969Z,74.10
2024-04-18T09:12:56.663Z,73.00
2024-04-18T09:15:27.862Z,74.80
2024-04-18T09:18:08.519Z,70.50
2024-04-18T09:20:39.732Z,71.70
2024-04-18T09:23:09.575Z,70.50
2024-04-18T09:25:41.027Z,69.30
2024-04-18T09:28:11.866Z,70.40
2024-04-18T09:30:39.137Z,65.60
2024-04-18T09:33:13.030Z,65.50
2024-04-18T09:35:46.332Z,66.50
2024-04-18T09:38:17.684Z,63.80
2024-04-18T09:40:55.231Z,65.60
2024-04-18T09:43:28.410Z,65.90
2024-04-18T09:46:05.117Z,64.60
2024-04-18T09:48:38.483Z,65.80
2024-04-18T09:51:10.340Z,66.30
2024-04-18T09:53:41.257Z,63.60
2024-04-18T09:56:11.188Z,62.60
2024-04-18T09:58:41.828Z,60.60
2024-04-18T10:01:13.294Z,59.20
2024-04-18T10:03:46.448Z,59.60
2024-04-18T10:06:19.082Z,55.70
2024-04-18T10:08:53.484Z,55.50
2024-04-18T10:11:25.572Z,56.40
2024-04-18T10:13:55.430Z,55.00
2024-04-18T10:16:24.911Z,56.00
2024-04-18T10:18:57.334Z,54.50
2024-04-18T10:21:37.875Z,54.10
2024-04-18T10:24:21.408Z,53.10
2024-04-18T10:27:02.059Z,53.20
2024-04-18T10:29:31.722Z,52.40
2024-04-18T10:32:01.552Z,49.80
2024-04-18T10:34:34.700Z,51.20
2024-04-18T10:37:09.395Z,57.60
2024-04-18T10:39:41.214Z,61.00
2024-04-18T10:42:12.113Z,62.40
2024-04-18T10:44:41.993Z,61.90
2024-04-18T10:47:12.130Z,61.60
2024-04-18T10:49:44.244Z,61.50
2024-04-18T10:52:13.759Z,61.00
2024-04-18T10:54:43.261Z,60.10
2024-04-18T10:57:13.888Z,59.40
2024-04-18T10:59:44.828Z,60.70
2024-04-18T11:02:15.659Z,59.20
2024-04-18T11:04:47.837Z,59.20
2024-04-18T11:07:17.362Z,60.20
2024-04-18T11:09:46.894Z,60.80
2024-04-18T11:12:17.686Z,62.10
2024-04-18T11:14:48.699Z,60.50
2024-04-18T11:17:18.460Z,60.00
2024-04-18T11:19:50.603Z,61.80
2024-04-18T11:22:20.634Z,60.60
2024-04-18T11:24:50.215Z,62.40
2024-04-18T11:27:19.789Z,63.40
2024-04-18T11:29:54.254Z,64.20
2024-04-18T11:32:24.211Z,62.50
2024-04-18T11:35:00.575Z,62.20
2024-04-18T11:37:40.068Z,61.90
2024-04-18T11:40:10.650Z,61.80
2024-04-18T11:42:40.276Z,60.30
2024-04-18T11:45:10.737Z,59.70
2024-04-18T11:47:41.683Z,60.00
2024-04-18T11:50:13.916Z,59.10
2024-04-18T11:52:43.418Z,56.20
2024-04-18T11:55:12.966Z,58.30
2024-04-18T11:57:42.493Z,60.30
2024-04-18T12:00:12.843Z,61.90
2024-04-18T12:02:42.366Z,62.30
2024-04-18T12:05:14.568Z,59.90
2024-04-18T12:07:44.090Z,60.90
2024-04-18T12:10:13.613Z,59.70
2024-04-18T12:12:43.098Z,59.60
2024-04-18T12:15:11.052Z,58.80
2024-04-18T12:17:40.664Z,58.70
2024-04-18T12:20:11.055Z,58.20
2024-04-18T12:22:43.152Z,58.60
2024-04-18T12:25:12.695Z,57.40
2024-04-18T12:27:42.177Z,57.50
2024-04-18T12:30:12.386Z,56.30
2024-04-18T12:32:42.041Z,56.60
2024-04-18T12:35:11.924Z,55.20
2024-04-18T12:37:44.307Z,55.30
2024-04-18T12:40:15.389Z,53.90
2024-04-18T12:42:42.394Z,51.90
2024-04-18T12:45:12.066Z,53.70
2024-04-18T12:47:41.765Z,51.90
2024-04-18T12:50:11.404Z,47.40
2024-04-18T12:52:41.125Z,47.50
2024-04-18T12:55:15.909Z,46.00
2024-04-18T12:57:46.919Z,45.50
2024-04-18T13:00:17.651Z,45.30
2024-04-18T13:02:47.285Z,42.70
2024-04-18T13:05:16.910Z,43.90
2024-04-18T13:07:46.522Z,43.80
2024-04-18T13:10:18.802Z,43.90
2024-04-18T13:12:48.387Z,43.40
2024-04-18T13:15:21.008Z,43.30
2024-04-18T13:17:50.681Z,43.90
2024-04-18T13:20:23.807Z,44.60
2024-04-18T13:22:56.704Z,43.50
2024-04-18T13:25:29.187Z,43.30
2024-04-18T13:28:02.093Z,42.10
2024-04-18T13:30:31.698Z,44.10
2024-04-18T13:33:02.025Z,45.10
2024-04-18T13:35:43.400Z,45.30
2024-04-18T13:38:24.124Z,46.10
2024-04-18T13:40:57.192Z,48.00
2024-04-18T13:43:26.729Z,47.00
2024-04-18T13:45:59.888Z,46.50
2024-04-18T13:48:34.537Z,46.40
2024-04-18T13:51:05.006Z,46.50
2024-04-18T13:53:34.659Z,45.40
2024-04-18T13:56:07.415Z,46.20
2024-04-18T13:58:37.371Z,45.40
2024-04-18T14:01:07.501Z,45.50
2024-04-18T14:03:37.392Z,44.50
2024-04-18T14:06:11.356Z,44.50
2024-04-18T14:08:42.324Z,45.50
2024-04-18T14:11:14.823Z,44.70
2024-04-18T14:13:46.545Z,45.30
2024-04-18T14:16:32.559Z,46.10
2024-04-18T14:19:02.903Z,45.90
2024-04-18T14:21:34.419Z,45.40
2024-04-18T14:24:04.861Z,46.30
2024-04-18T14:26:37.802Z,48.20
2024-04-18T14:29:07.352Z,49.30
2024-04-18T14:31:37.573Z,49.40
2024-04-18T14:34:07.927Z,51.00
2024-04-18T14:36:38.072Z,50.40
2024-04-18T14:39:10.807Z,50.30
2024-04-18T14:41:46.971Z,50.10
2024-04-18T14:44:16.669Z,48.60
2024-04-18T14:46:46.303Z,49.30
2024-04-18T14:49:17.468Z,50.50
2024-04-18T14:51:47.381Z,50.20
2024-04-18T14:54:17.199Z,50.90
2024-04-18T14:56:49.389Z,50.50
2024-04-18T14:59:18.965Z,49.60
2024-04-18T15:01:48.511Z,49.30
2024-04-18T15:04:19.616Z,49.40
2024-04-18T15:06:51.420Z,48.50
2024-04-18T15:09:21.021Z,47.80
2024-04-18T15:11:55.658Z,47.20
2024-04-18T15:14:25.245Z,48.00
2024-04-18T15:16:54.775Z,48.90
2024-04-18T15:19:24.256Z,49.40
2024-04-18T15:21:53.858Z,50.30
2024-04-18T15:24:24.054Z,50.10
2024-04-18T15:26:56.479Z,51.20
2024-04-18T15:29:26.074Z,52.00
2024-04-18T15:31:55.607Z,51.80
2024-04-18T15:34:25.207Z,52.00
2024-04-18T15:36:54.819Z,50.80
2024-04-18T15:39:24.398Z,50.80
2024-04-18T15:41:56.558Z,51.30
2024-04-18T15:44:26.554Z,50.80
2024-04-18T15:46:56.075Z,50.80
2024-04-18T15:49:25.618Z,50.80
2024-04-18T15:51:55.153Z,51.80
2024-04-18T15:54:24.750Z,50.80
2024-04-18T15:56:56.914Z,51.20
2024-04-18T15:59:26.423Z,51.50
2024-04-18T16:01:55.989Z,51.50
2024-04-18T16:04:23.169Z,52.50
2024-04-18T16:06:52.745Z,51.90
2024-04-18T16:09:22.299Z,51.40
2024-04-18T16:11:51.934Z,52.00
2024-04-18T16:14:24.067Z,52.70
2024-04-18T16:16:53.698Z,51.80
2024-04-18T16:19:25.211Z,52.00
2024-04-18T16:21:55.094Z,51.70
2024-04-18T16:24:24.704Z,52.00
2024-04-18T16:26:54.248Z,52.00
2024-04-18T16:29:26.490Z,52.80
2024-04-18T16:31:56.314Z,53.00
2024-04-18T16:34:25.879Z,54.00
2024-04-18T16:37:08.595Z,52.90
2024-04-18T16:39:41.825Z,53.20
2024-04-18T16:42:11.436Z,54.40
2024-04-18T16:44:43.560Z,53.80
2024-04-18T16:47:13.160Z,54.30
2024-04-18T16:49:43.194Z,55.70
2024-04-18T16:52:12.851Z,55.00
2024-04-18T16:54:42.975Z,55.80
2024-04-18T16:57:13.520Z,54.60
2024-04-18T16:59:45.857Z,56.00
2024-04-18T17:02:15.392Z,57.00
2024-04-18T17:04:44.988Z,56.90
2024-04-18T17:07:14.527Z,56.10
2024-04-18T17:09:41.541Z,56.80
2024-04-18T17:12:11.552Z,57.10
2024-04-18T17:14:41.158Z,56.90
2024-04-18T17:17:13.264Z,56.70
2024-04-18T17:19:42.922Z,57.30
2024-04-18T17:22:12.438Z,57.30
2024-04-18T17:25:10.402Z,57.70
2024-04-18T17:27:40.902Z,57.90
2024-04-18T17:30:11.310Z,57.20
2024-04-18T17:32:44.529Z,57.50
2024-04-18T17:35:14.126Z,57.80
2024-04-18T17:37:43.649Z,58.50
2024-04-18T17:40:14.098Z,59.00
2024-04-18T17:42:44.435Z,58.60
2024-04-18T17:45:14.056Z,58.70
2024-04-18T17:47:48.398Z,59.30
2024-04-18T17:50:18.254Z,59.80
2024-04-18T17:52:56.811Z,59.40
2024-04-18T17:55:26.443Z,59.40
2024-04-18T17:57:55.946Z,59.40
2024-04-18T18:00:25.527Z,59.80
2024-04-18T18:02:57.848Z,59.90
2024-04-18T18:05:27.496Z,60.60
2024-04-18T18:07:56.966Z,60.40
2024-04-18T18:10:23.935Z,60.80
2024-04-18T18:12:53.534Z,60.70
2024-04-18T18:15:20.580Z,61.20
2024-04-18T18:17:50.154Z,61.10
2024-04-18T18:20:22.456Z,62.10
2024-04-18T18:22:51.971Z,61.80
2024-04-18T18:25:21.512Z,62.10
2024-04-18T18:27:51.756Z,61.80
2024-04-18T18:30:18.804Z,62.50
2024-04-18T18:32:48.444Z,62.20
2024-04-18T18:35:15.766Z,62.80
2024-04-18T18:37:49.454Z,61.70
2024-04-18T18:40:19.233Z,62.60
2024-04-18T18:42:46.244Z,62.40
2024-04-18T18:45:15.893Z,62.50
2024-04-18T18:47:42.985Z,62.70
2024-04-18T18:50:12.573Z,62.70
2024-04-18T18:52:40.200Z,62.90
2024-04-18T18:55:12.616Z,63.20
2024-04-18T18:57:47.414Z,63.70
2024-04-18T19:00:15.144Z,63.90
2024-04-18T19:02:44.845Z,65.00
2024-04-18T19:05:11.825Z,64.60
2024-04-18T19:07:41.355Z,65.20
2024-04-18T19:10:10.916Z,64.80
2024-04-18T19:12:40.585Z,64.90
2024-04-18T19:15:08.114Z,65.10
2024-04-18T19:17:40.260Z,65.30
2024-04-18T19:20:07.718Z,64.90
2024-04-18T19:22:37.282Z,65.70
2024-04-18T19:25:04.783Z,66.10
2024-04-18T19:27:37.007Z,65.00
2024-04-18T19:30:04.649Z,65.50
2024-04-18T19:32:34.215Z,66.10
2024-04-18T19:35:01.208Z,66.00
2024-04-18T19:37:30.854Z,65.90
2024-04-18T19:39:57.877Z,66.20
2024-04-18T19:42:29.713Z,66.90
2024-04-18T19:45:02.390Z,67.70
2024-04-18T19:47:31.970Z,67.90
2024-04-18T19:50:01.231Z,67.60
2024-04-18T19:52:30.799Z,67.90
2024-04-18T19:54:57.716Z,67.10
2024-04-18T19:57:27.292Z,67.40
2024-04-18T19:59:54.241Z,67.80
2024-04-18T20:02:26.406Z,67.30
2024-04-18T20:04:53.507Z,67.20
2024-04-18T20:07:23.979Z,67.10
2024-04-18T20:09:50.949Z,67.50
2024-04-18T20:12:20.508Z,67.60
2024-04-18T20:14:47.521Z,67.50
2024-04-18T20:17:17.331Z,68.30
2024-04-18T20:19:46.834Z,68.10
2024-04-18T20:22:16.357Z,68.50
2024-04-18T20:24:43.397Z,68.00
2024-04-18T20:27:13.202Z,68.60
2024-04-18T20:29:40.177Z,67.90
2024-04-18T20:32:09.990Z,68.70
2024-04-18T20:34:36.971Z,68.90
2024-04-18T20:37:09.250Z,69.40
2024-04-18T20:39:36.244Z,69.40
2024-04-18T20:42:05.959Z,69.50
2024-04-18T20:44:33.094Z,69.70
2024-04-18T20:47:02.589Z,69.40
2024-04-18T20:49:29.496Z,69.40
2024-04-18T20:51:59.199Z,69.40
2024-04-18T20:54:29.067Z,68.50
2024-04-18T20:56:58.662Z,68.80
2024-04-18T20:59:25.646Z,68.50
2024-04-18T21:01:55.495Z,68.30
2024-04-18T21:04:22.607Z,68.50
2024-04-18T21:06:52.275Z,68.60
2024-04-18T21:09:19.304Z,69.00
2024-04-18T21:11:51.535Z,68.30
2024-04-18T21:14:18.603Z,68.50
2024-04-18T21:16:48.437Z,67.50
2024-04-18T21:19:18.406Z,67.70
2024-04-18T21:21:50.643Z,67.20
2024-04-18T21:24:17.804Z,67.40
2024-04-18T21:26:47.433Z,67.70
2024-04-18T21:29:17.315Z,67.60
2024-04-18T21:31:47.280Z,67.60
2024-04-18T21:34:14.534Z,67.10
2024-04-18T21:36:44.311Z,67.50
2024-04-18T21:39:11.466Z,68.00
2024-04-18T21:41:42.034Z,67.70
2024-04-18T21:44:10.457Z,68.20
2024-04-18T21:46:42.855Z,68.30
2024-04-18T21:49:09.965Z,69.00
2024-04-18T21:51:39.718Z,69.10
2024-04-18T21:54:06.823Z,69.50
2024-04-18T21:56:36.460Z,69.70
2024-04-18T21:59:03.513Z,70.30
2024-04-18T22:01:33.157Z,69.60
2024-04-18T22:04:03.001Z,69.80
2024-04-18T22:06:33.475Z,70.30
2024-04-18T22:09:00.557Z,70.20
2024-04-18T22:11:30.250Z,70.30
2024-04-18T22:13:57.525Z,70.30
2024-04-18T22:16:27.204Z,70.30
2024-04-18T22:18:54.425Z,70.60
2024-04-18T22:21:26.762Z,70.40
2024-04-18T22:23:54.110Z,70.40
2024-04-18T22:26:23.719Z,70.70
2024-04-18T22:28:50.742Z,70.90
2024-04-18T22:31:20.342Z,71.40
2024-04-18T22:33:47.852Z,71.40
2024-04-18T22:36:17.665Z,71.30
2024-04-18T22:38:47.316Z,71.40
2024-04-18T22:41:16.942Z,71.30
2024-04-18T22:43:44.203Z,71.40
2024-04-18T22:46:13.854Z,71.50
2024-04-18T22:48:41.235Z,71.40
2024-04-18T22:51:11.143Z,71.40
2024-04-18T22:53:38.194Z,71.00
2024-04-18T22:56:10.664Z,71.30
2024-04-18T22:58:37.723Z,71.40
2024-04-18T23:01:07.803Z,71.50
2024-04-18T23:03:35.154Z,71.60
2024-04-18T23:06:04.857Z,71.80
2024-04-18T23:08:31.878Z,71.70
2024-04-18T23:11:01.529Z,71.80
2024-04-18T23:13:31.365Z,72.20
2024-04-18T23:16:00.998Z,71.90
2024-04-18T23:18:28.438Z,72.00
2024-04-18T23:20:58.238Z,72.30
2024-04-18T23:23:25.253Z,72.20
2024-04-18T23:25:54.840Z,72.50
2024-04-18T23:28:22.111Z,72.30
2024-04-18T23:30:54.748Z,73.50
2024-04-18T23:33:22.324Z,74.50
2024-04-18T23:35:52.100Z,75.30
2024-04-18T23:38:19.142Z,76.30
2024-04-18T23:40:48.833Z,77.40
2024-04-18T23:43:15.881Z,78.00
2024-04-18T23:45:45.571Z,78.60
2024-04-18T23:48:15.460Z,79.70
2024-04-18T23:50:45.182Z,80.10
2024-04-18T23:53:12.278Z,80.20
2024-04-18T23:55:43.568Z,80.70
2024-04-18T23:58:10.668Z,80.80
